createdAt,value
2023-04-18T00:00:51.068Z,85.88
2023-04-18T00:01:50.989Z,85.95
2023-04-18T00:02:51.147Z,85.99
2023-04-18T00:03:51.146Z,86.08
2023-04-18T00:04:51.038Z,86.14
2023-04-18T00:05:50.989Z,86.07
2023-04-18T00:06:50.995Z,86.11
2023-04-18T00:07:50.903Z,86.21
2023-04-18T00:08:50.949Z,86.25
2023-04-18T00:09:50.927Z,86.25
2023-04-18T00:10:50.916Z,86.26
2023-04-18T00:11:50.856Z,86.25
2023-04-18T00:12:50.888Z,86.24
2023-04-18T00:13:50.896Z,86.18
2023-04-18T00:14:50.896Z,86.19
2023-04-18T00:15:50.906Z,86.18
2023-04-18T00:16:51.552Z,86.14
2023-04-18T00:17:50.884Z,86.13
2023-04-18T00:18:50.806Z,86.11
2023-04-18T00:19:50.878Z,86.09
2023-04-18T00:20:50.811Z,86.12
2023-04-18T00:21:50.773Z,86.15
2023-04-18T00:22:50.760Z,86.20
2023-04-18T00:23:50.761Z,86.09
2023-04-18T00:24:50.795Z,86.01
2023-04-18T00:25:50.857Z,85.90
2023-04-18T00:26:50.778Z,85.88
2023-04-18T00:27:50.804Z,86.00
2023-04-18T00:28:50.707Z,86.04
2023-04-18T00:29:50.730Z,86.07
2023-04-18T00:30:50.742Z,86.12
2023-04-18T00:31:50.705Z,86.18
2023-04-18T00:32:50.716Z,86.14
2023-04-18T00:33:50.673Z,86.24
2023-04-18T00:34:50.710Z,86.24
2023-04-18T00:35:50.648Z,86.23
2023-04-18T00:36:50.630Z,86.26
2023-04-18T00:37:50.627Z,86.31
2023-04-18T00:38:50.592Z,86.25
2023-04-18T00:39:50.619Z,86.12
2023-04-18T00:40:50.587Z,85.98
2023-04-18T00:41:50.592Z,85.98
2023-04-18T00:42:50.563Z,85.97
2023-04-18T00:43:50.624Z,85.97
2023-04-18T00:44:50.561Z,86.01
2023-04-18T00:45:50.569Z,85.98
2023-04-18T00:46:50.518Z,86.02
2023-04-18T00:47:50.605Z,86.06
2023-04-18T00:48:50.499Z,86.08
2023-04-18T00:49:50.539Z,86.05
2023-04-18T00:50:50.525Z,85.99
2023-04-18T00:51:50.520Z,85.95
2023-04-18T00:52:50.556Z,85.90
2023-04-18T00:53:50.494Z,86.00
2023-04-18T00:54:50.433Z,86.03
2023-04-18T00:55:50.484Z,86.03
2023-04-18T00:56:50.472Z,85.90
2023-04-18T00:57:50.454Z,85.88
2023-04-18T00:58:50.400Z,85.82
2023-04-18T00:59:50.388Z,85.83
2023-04-18T01:00:50.410Z,85.75
2023-04-18T01:01:50.427Z,85.77
2023-04-18T01:02:50.453Z,85.82
2023-04-18T01:03:50.539Z,85.89
2023-04-18T01:04:56.924Z,85.80
2023-04-18T01:05:50.345Z,85.71
2023-04-18T01:06:50.341Z,85.68
2023-04-18T01:07:50.325Z,85.74
2023-04-18T01:08:50.343Z,85.76
2023-04-18T01:09:50.365Z,85.77
2023-04-18T01:10:50.389Z,85.73
2023-04-18T01:11:50.288Z,85.63
2023-04-18T01:12:50.260Z,85.61
2023-04-18T01:13:50.387Z,85.67
2023-04-18T01:14:50.228Z,85.80
2023-04-18T01:15:50.315Z,85.86
2023-04-18T01:16:50.246Z,86.01
2023-04-18T01:17:50.350Z,86.11
2023-04-18T01:18:50.272Z,86.16
2023-04-18T01:19:50.229Z,86.20
2023-04-18T01:20:50.234Z,86.26
2023-04-18T01:21:50.249Z,86.31
2023-04-18T01:22:50.161Z,86.30
2023-04-18T01:23:50.161Z,86.25
2023-04-18T01:24:50.226Z,86.21
2023-04-18T01:25:50.163Z,86.20
2023-04-18T01:26:50.213Z,86.11
2023-04-18T01:27:50.151Z,86.12
2023-04-18T01:28:50.135Z,86.08
2023-04-18T01:29:50.079Z,86.02
2023-04-18T01:30:50.102Z,85.96
2023-04-18T01:31:50.230Z,86.03
2023-04-18T01:32:50.103Z,86.15
2023-04-18T01:33:50.037Z,86.16
2023-04-18T01:34:50.067Z,86.21
2023-04-18T01:35:50.040Z,86.20
2023-04-18T01:36:50.041Z,86.15
2023-04-18T01:37:50.074Z,86.05
2023-04-18T01:38:49.976Z,85.90
2023-04-18T01:39:49.973Z,85.80
2023-04-18T01:40:50.075Z,85.80
2023-04-18T01:41:49.973Z,85.81
2023-04-18T01:42:49.957Z,85.81
2023-04-18T01:43:50.026Z,85.70
2023-04-18T01:44:49.923Z,85.58
2023-04-18T01:45:49.911Z,85.62
2023-04-18T01:46:50.007Z,85.70
2023-04-18T01:47:49.958Z,85.68
2023-04-18T01:48:49.908Z,85.71
2023-04-18T01:49:49.871Z,85.78
2023-04-18T01:50:49.922Z,85.89
2023-04-18T01:51:49.886Z,85.91
2023-04-18T01:52:49.838Z,85.92
2023-04-18T01:53:49.884Z,85.96
2023-04-18T01:54:49.848Z,86.08
2023-04-18T01:55:49.879Z,86.08
2023-04-18T01:56:49.811Z,86.11
2023-04-18T01:57:49.882Z,86.12
2023-04-18T01:58:49.854Z,86.10
2023-04-18T01:59:49.785Z,85.97
2023-04-18T02:00:49.864Z,85.99
2023-04-18T02:01:49.839Z,85.96
2023-04-18T02:02:49.897Z,85.90
2023-04-18T02:03:50.003Z,85.78
2023-04-18T02:04:49.809Z,85.74
2023-04-18T02:05:49.767Z,85.70
2023-04-18T02:06:49.774Z,85.68
2023-04-18T02:07:49.714Z,85.73
2023-04-18T02:08:49.685Z,85.75
2023-04-18T02:09:49.675Z,85.81
2023-04-18T02:10:49.679Z,85.77
2023-04-18T02:11:49.676Z,85.82
2023-04-18T02:12:49.649Z,85.82
2023-04-18T02:13:49.686Z,85.84
2023-04-18T02:14:49.673Z,85.87
2023-04-18T02:15:49.633Z,85.97
2023-04-18T02:16:49.746Z,86.00
2023-04-18T02:17:49.631Z,85.99
2023-04-18T02:18:49.674Z,85.96
2023-04-18T02:19:49.595Z,86.03
2023-04-18T02:20:49.656Z,86.18
2023-04-18T02:21:49.620Z,86.32
2023-04-18T02:22:49.692Z,86.45
2023-04-18T02:23:49.551Z,86.44
2023-04-18T02:24:49.551Z,86.46
2023-04-18T02:25:49.553Z,86.50
2023-04-18T02:26:49.525Z,86.55
2023-04-18T02:27:49.498Z,86.63
2023-04-18T02:28:49.592Z,86.64
2023-04-18T02:29:49.513Z,86.54
2023-04-18T02:30:49.482Z,86.49
2023-04-18T02:31:49.503Z,86.50
2023-04-18T02:32:49.486Z,86.57
2023-04-18T02:33:49.476Z,86.73
2023-04-18T02:34:49.448Z,86.79
2023-04-18T02:35:49.456Z,86.83
2023-04-18T02:36:49.471Z,86.83
2023-04-18T02:37:49.408Z,86.79
2023-04-18T02:38:49.396Z,86.79
2023-04-18T02:39:49.424Z,86.77
2023-04-18T02:40:49.385Z,86.79
2023-04-18T02:41:49.394Z,86.89
2023-04-18T02:42:49.360Z,86.91
2023-04-18T02:43:49.343Z,86.89
2023-04-18T02:44:49.329Z,86.81
2023-04-18T02:45:49.389Z,86.78
2023-04-18T02:46:49.414Z,86.77
2023-04-18T02:47:55.181Z,86.74
2023-04-18T02:48:49.353Z,86.71
2023-04-18T02:49:49.352Z,86.72
2023-04-18T02:50:49.342Z,86.65
2023-04-18T02:51:49.317Z,86.61
2023-04-18T02:52:49.276Z,86.62
2023-04-18T02:53:49.289Z,86.63
2023-04-18T02:54:49.332Z,86.52
2023-04-18T02:55:49.246Z,86.42
2023-04-18T02:56:49.258Z,86.35
2023-04-18T02:57:49.214Z,86.37
2023-04-18T02:58:49.278Z,86.39
2023-04-18T02:59:49.188Z,86.41
2023-04-18T03:00:49.208Z,86.52
2023-04-18T03:01:49.320Z,86.64
2023-04-18T03:02:49.320Z,86.70
2023-04-18T03:03:49.195Z,86.75
2023-04-18T03:04:49.186Z,86.78
2023-04-18T03:05:49.128Z,86.82
2023-04-18T03:06:49.130Z,86.87
2023-04-18T03:07:49.125Z,86.92
2023-04-18T03:08:49.122Z,87.02
2023-04-18T03:09:49.108Z,87.12
2023-04-18T03:10:49.081Z,87.17
2023-04-18T03:11:49.073Z,87.20
2023-04-18T03:12:49.048Z,87.23
2023-04-18T03:13:49.074Z,87.19
2023-04-18T03:14:49.044Z,87.16
2023-04-18T03:15:49.063Z,87.11
2023-04-18T03:16:49.044Z,87.11
2023-04-18T03:17:49.161Z,87.04
2023-04-18T03:18:48.996Z,87.05
2023-04-18T03:19:49.042Z,87.09
2023-04-18T03:20:48.960Z,87.09
2023-04-18T03:21:48.960Z,87.05
2023-04-18T03:22:49.005Z,87.04
2023-04-18T03:23:49.036Z,87.08
2023-04-18T03:24:48.926Z,87.10
2023-04-18T03:25:48.925Z,87.21
2023-04-18T03:26:49.006Z,87.26
2023-04-18T03:27:48.905Z,87.27
2023-04-18T03:28:48.900Z,87.27
2023-04-18T03:29:48.878Z,87.20
2023-04-18T03:30:48.879Z,87.20
2023-04-18T03:31:48.963Z,87.19
2023-04-18T03:32:48.919Z,87.15
2023-04-18T03:33:48.890Z,87.16
2023-04-18T03:34:48.903Z,87.13
2023-04-18T03:35:48.825Z,87.11
2023-04-18T03:36:48.805Z,87.11
2023-04-18T03:37:48.815Z,87.14
2023-04-18T03:38:48.858Z,87.17
2023-04-18T03:39:48.827Z,87.25
2023-04-18T03:40:48.814Z,87.31
2023-04-18T03:41:48.890Z,87.29
2023-04-18T03:42:48.742Z,87.30
2023-04-18T03:43:48.752Z,87.31
2023-04-18T03:44:49.739Z,87.31
2023-04-18T03:45:48.784Z,87.32
2023-04-18T03:46:48.754Z,87.32
2023-04-18T03:47:48.729Z,87.39
2023-04-18T03:48:48.725Z,87.35
2023-04-18T03:49:48.672Z,87.33
2023-04-18T03:50:48.680Z,87.39
2023-04-18T03:51:48.684Z,87.46
2023-04-18T03:52:48.659Z,87.47
2023-04-18T03:53:48.651Z,87.51
2023-04-18T03:54:48.652Z,87.56
2023-04-18T03:55:48.607Z,87.60
2023-04-18T03:56:48.638Z,87.61
2023-04-18T03:57:48.684Z,87.61
2023-04-18T03:58:48.589Z,87.61
2023-04-18T03:59:48.606Z,87.59
2023-04-18T04:00:48.515Z,87.60
2023-04-18T04:01:48.601Z,87.61
2023-04-18T04:02:48.706Z,87.72
2023-04-18T04:03:48.734Z,87.75
2023-04-18T04:04:48.509Z,87.81
2023-04-18T04:05:48.488Z,87.90
2023-04-18T04:06:48.456Z,87.98
2023-04-18T04:07:48.541Z,88.01
2023-04-18T04:08:48.448Z,87.98
2023-04-18T04:09:48.460Z,87.97
2023-04-18T04:10:48.420Z,88.01
2023-04-18T04:11:48.413Z,88.01
2023-04-18T04:12:48.409Z,87.98
2023-04-18T04:13:48.388Z,87.91
2023-04-18T04:14:48.410Z,87.87
2023-04-18T04:15:48.396Z,87.86
2023-04-18T04:16:48.431Z,87.98
2023-04-18T04:17:48.352Z,88.01
2023-04-18T04:18:48.378Z,88.02
2023-04-18T04:19:48.424Z,88.02
2023-04-18T04:20:48.350Z,88.01
2023-04-18T04:21:48.336Z,88.02
2023-04-18T04:22:48.343Z,88.03
2023-04-18T04:23:48.305Z,88.00
2023-04-18T04:24:48.327Z,87.95
2023-04-18T04:25:48.321Z,87.87
2023-04-18T04:26:48.320Z,87.82
2023-04-18T04:27:48.260Z,87.83
2023-04-18T04:28:48.234Z,87.78
2023-04-18T04:29:48.263Z,87.78
2023-04-18T04:30:48.208Z,87.81
2023-04-18T04:31:48.219Z,87.87
2023-04-18T04:32:48.225Z,87.94
2023-04-18T04:33:48.190Z,87.89
2023-04-18T04:34:48.186Z,87.84
2023-04-18T04:35:48.159Z,87.81
2023-04-18T04:36:48.179Z,87.83
2023-04-18T04:37:48.270Z,87.83
2023-04-18T04:38:48.135Z,87.80
2023-04-18T04:39:48.124Z,87.81
2023-04-18T04:40:48.112Z,87.79
2023-04-18T04:41:48.263Z,87.71
2023-04-18T04:42:48.122Z,87.61
2023-04-18T04:43:48.089Z,87.61
2023-04-18T04:44:48.127Z,87.70
2023-04-18T04:45:48.085Z,87.71
2023-04-18T04:46:48.086Z,87.71
2023-04-18T04:47:48.078Z,87.73
2023-04-18T04:48:48.044Z,87.71
2023-04-18T04:49:48.025Z,87.68
2023-04-18T04:50:48.030Z,87.66
2023-04-18T04:51:48.086Z,87.58
2023-04-18T04:52:48.030Z,87.60
2023-04-18T04:53:48.003Z,87.62
2023-04-18T04:54:47.968Z,87.76
2023-04-18T04:55:48.032Z,87.86
2023-04-18T04:56:47.997Z,87.92
2023-04-18T04:57:48.001Z,87.94
2023-04-18T04:58:47.934Z,87.93
2023-04-18T04:59:47.913Z,87.97
2023-04-18T05:00:47.952Z,87.98
2023-04-18T05:01:47.917Z,88.00
2023-04-18T05:02:48.105Z,88.01
2023-04-18T05:03:48.131Z,87.99
2023-04-18T05:04:47.966Z,88.00
2023-04-18T05:05:47.942Z,87.98
2023-04-18T05:06:47.882Z,87.90
2023-04-18T05:07:47.851Z,87.83
2023-04-18T05:08:47.905Z,87.75
2023-04-18T05:09:47.924Z,87.69
2023-04-18T05:10:47.928Z,87.68
2023-04-18T05:11:47.949Z,87.58
2023-04-18T05:12:47.838Z,87.47
2023-04-18T05:13:47.977Z,87.35
2023-04-18T05:14:47.769Z,87.31
2023-04-18T05:15:47.813Z,87.37
2023-04-18T05:16:47.805Z,87.43
2023-04-18T05:17:47.795Z,87.44
2023-04-18T05:18:47.739Z,87.40
2023-04-18T05:19:47.725Z,87.32
2023-04-18T05:20:47.808Z,87.30
2023-04-18T05:21:47.692Z,87.30
2023-04-18T05:22:47.748Z,87.19
2023-04-18T05:23:47.704Z,87.18
2023-04-18T05:24:47.697Z,87.22
2023-04-18T05:25:47.659Z,87.26
2023-04-18T05:26:47.750Z,87.43
2023-04-18T05:27:47.643Z,87.49
2023-04-18T05:28:47.629Z,87.48
2023-04-18T05:29:47.663Z,87.52
2023-04-18T05:30:47.671Z,87.56
2023-04-18T05:31:47.760Z,87.73
2023-04-18T05:32:47.637Z,87.84
2023-04-18T05:33:47.603Z,87.89
2023-04-18T05:34:47.608Z,87.88
2023-04-18T05:35:47.572Z,87.93
2023-04-18T05:36:47.633Z,87.91
2023-04-18T05:37:47.707Z,87.91
2023-04-18T05:38:47.587Z,87.82
2023-04-18T05:39:47.519Z,87.74
2023-04-18T05:40:47.523Z,87.73
2023-04-18T05:41:47.558Z,87.66
2023-04-18T05:42:47.543Z,87.58
2023-04-18T05:44:01.788Z,87.61
2023-04-18T05:44:47.614Z,87.53
2023-04-18T05:45:47.531Z,87.39
2023-04-18T05:46:47.495Z,87.27
2023-04-18T05:47:47.520Z,87.18
2023-04-18T05:48:47.463Z,87.22
2023-04-18T05:49:47.487Z,87.13
2023-04-18T05:50:47.469Z,87.04
2023-04-18T05:51:47.408Z,86.91
2023-04-18T05:52:47.436Z,86.94
2023-04-18T05:53:47.407Z,86.87
2023-04-18T05:54:47.473Z,86.78
2023-04-18T05:55:47.471Z,86.78
2023-04-18T05:56:47.382Z,86.70
2023-04-18T05:57:47.361Z,86.55
2023-04-18T05:58:47.353Z,86.54
2023-04-18T05:59:47.448Z,86.50
2023-04-18T06:00:47.366Z,86.50
2023-04-18T06:01:47.356Z,86.25
2023-04-18T06:02:47.493Z,86.21
2023-04-18T06:03:47.602Z,86.34
2023-04-18T06:04:47.400Z,86.45
2023-04-18T06:05:47.400Z,86.40
2023-04-18T06:06:47.301Z,86.32
2023-04-18T06:07:47.279Z,86.29
2023-04-18T06:08:47.261Z,86.28
2023-04-18T06:09:47.229Z,86.19
2023-04-18T06:10:47.250Z,86.23
2023-04-18T06:11:47.253Z,86.18
2023-04-18T06:12:47.250Z,86.06
2023-04-18T06:13:47.244Z,85.86
2023-04-18T06:14:47.210Z,85.75
2023-04-18T06:15:47.193Z,85.68
2023-04-18T06:16:47.159Z,85.64
2023-04-18T06:17:47.256Z,85.44
2023-04-18T06:18:47.174Z,85.23
2023-04-18T06:19:47.166Z,85.10
2023-04-18T06:20:47.164Z,85.10
2023-04-18T06:21:47.129Z,85.02
2023-04-18T06:22:47.100Z,85.04
2023-04-18T06:23:47.120Z,85.01
2023-04-18T06:24:47.103Z,84.95
2023-04-18T06:25:47.129Z,84.98
2023-04-18T06:26:47.331Z,85.03
2023-04-18T06:27:47.174Z,85.09
2023-04-18T06:28:47.085Z,85.20
2023-04-18T06:29:47.050Z,85.08
2023-04-18T06:30:47.057Z,85.01
2023-04-18T06:31:47.068Z,84.94
2023-04-18T06:32:47.065Z,84.89
2023-04-18T06:33:46.981Z,85.09
2023-04-18T06:34:46.975Z,85.30
2023-04-18T06:35:46.980Z,85.25
2023-04-18T06:36:46.992Z,85.14
2023-04-18T06:37:46.983Z,85.21
2023-04-18T06:38:47.066Z,85.11
2023-04-18T06:39:47.086Z,84.95
2023-04-18T06:40:47.018Z,85.06
2023-04-18T06:41:46.948Z,84.88
2023-04-18T06:42:46.934Z,84.84
2023-04-18T06:44:02.132Z,84.93
2023-04-18T06:44:47.522Z,85.01
2023-04-18T06:45:47.097Z,84.88
2023-04-18T06:46:46.859Z,84.82
2023-04-18T06:47:46.904Z,85.04
2023-04-18T06:48:47.134Z,85.09
2023-04-18T06:49:46.886Z,85.09
2023-04-18T06:50:46.881Z,85.23
2023-04-18T06:51:46.830Z,85.51
2023-04-18T06:52:46.791Z,85.58
2023-04-18T06:53:46.890Z,85.59
2023-04-18T06:54:46.930Z,85.52
2023-04-18T06:55:46.804Z,85.52
2023-04-18T06:56:46.774Z,85.61
2023-04-18T06:57:46.769Z,85.51
2023-04-18T06:58:46.781Z,85.32
2023-04-18T06:59:46.937Z,85.32
2023-04-18T07:00:46.815Z,85.21
2023-04-18T07:01:46.776Z,85.19
2023-04-18T07:02:46.908Z,85.19
2023-04-18T07:03:46.767Z,85.08
2023-04-18T07:04:46.799Z,85.08
2023-04-18T07:05:46.686Z,85.01
2023-04-18T07:06:46.677Z,85.09
2023-04-18T07:07:46.684Z,85.08
2023-04-18T07:08:46.671Z,85.00
2023-04-18T07:09:46.672Z,85.00
2023-04-18T07:10:46.603Z,85.16
2023-04-18T07:11:46.630Z,85.40
2023-04-18T07:12:46.613Z,85.50
2023-04-18T07:13:46.702Z,85.46
2023-04-18T07:14:46.602Z,85.36
2023-04-18T07:15:46.563Z,85.39
2023-04-18T07:16:46.645Z,85.36
2023-04-18T07:17:46.745Z,85.28
2023-04-18T07:18:46.537Z,85.29
2023-04-18T07:19:46.575Z,85.28
2023-04-18T07:20:46.519Z,85.29
2023-04-18T07:21:46.482Z,85.21
2023-04-18T07:22:46.580Z,85.06
2023-04-18T07:23:46.497Z,84.89
2023-04-18T07:24:46.485Z,84.78
2023-04-18T07:25:46.655Z,84.70
2023-04-18T07:26:46.521Z,84.63
2023-04-18T07:27:46.573Z,84.72
2023-04-18T07:28:46.479Z,84.70
2023-04-18T07:29:46.424Z,84.47
2023-04-18T07:30:46.458Z,84.45
2023-04-18T07:31:46.461Z,84.11
2023-04-18T07:32:46.485Z,83.88
2023-04-18T07:33:46.394Z,83.96
2023-04-18T07:34:46.415Z,83.81
2023-04-18T07:35:46.347Z,83.75
2023-04-18T07:36:46.381Z,83.77
2023-04-18T07:37:46.395Z,83.80
2023-04-18T07:38:46.376Z,83.64
2023-04-18T07:39:46.350Z,83.68
2023-04-18T07:40:46.420Z,83.55
2023-04-18T07:41:46.424Z,83.41
2023-04-18T07:42:46.439Z,83.26
2023-04-18T07:43:46.283Z,83.21
2023-04-18T07:44:46.289Z,83.34
2023-04-18T07:45:46.254Z,83.52
2023-04-18T07:46:46.349Z,83.54
2023-04-18T07:47:46.255Z,83.67
2023-04-18T07:48:46.247Z,83.36
2023-04-18T07:49:46.249Z,83.04
2023-04-18T07:50:46.257Z,82.90
2023-04-18T07:51:46.286Z,82.58
2023-04-18T07:52:46.190Z,82.71
2023-04-18T07:53:46.205Z,82.56
2023-04-18T07:54:46.187Z,82.57
2023-04-18T07:55:46.170Z,82.70
2023-04-18T07:56:46.269Z,82.61
2023-04-18T07:57:47.498Z,82.63
2023-04-18T07:58:46.169Z,82.75
2023-04-18T07:59:46.133Z,82.58
2023-04-18T08:00:46.168Z,82.52
2023-04-18T08:01:46.121Z,82.46
2023-04-18T08:02:46.173Z,82.52
2023-04-18T08:03:46.153Z,82.01
2023-04-18T08:04:46.611Z,81.97
2023-04-18T08:05:46.084Z,81.85
2023-04-18T08:06:46.060Z,81.84
2023-04-18T08:07:46.096Z,81.93
2023-04-18T08:08:46.020Z,81.90
2023-04-18T08:09:46.051Z,82.06
2023-04-18T08:10:46.011Z,82.26
2023-04-18T08:11:46.050Z,82.40
2023-04-18T08:12:46.004Z,82.61
2023-04-18T08:13:46.050Z,82.75
2023-04-18T08:14:46.039Z,82.91
2023-04-18T08:15:46.054Z,82.99
2023-04-18T08:16:46.072Z,83.14
2023-04-18T08:17:45.970Z,83.07
2023-04-18T08:18:46.011Z,82.83
2023-04-18T08:19:45.916Z,82.73
2023-04-18T08:20:46.010Z,82.78
2023-04-18T08:21:45.973Z,82.81
2023-04-18T08:23:02.071Z,83.01
2023-04-18T08:23:45.915Z,83.11
2023-04-18T08:25:01.122Z,83.04
2023-04-18T08:25:45.921Z,83.04
2023-04-18T08:26:45.856Z,82.66
2023-04-18T08:27:45.844Z,82.51
2023-04-18T08:28:46.655Z,82.41
2023-04-18T08:29:45.924Z,82.08
2023-04-18T08:30:45.856Z,81.58
2023-04-18T08:31:45.884Z,81.70
2023-04-18T08:32:46.019Z,81.79
2023-04-18T08:33:45.839Z,81.84
2023-04-18T08:34:45.768Z,82.04
2023-04-18T08:35:45.850Z,82.02
2023-04-18T08:36:45.806Z,81.62
2023-04-18T08:37:45.791Z,81.55
2023-04-18T08:38:45.816Z,81.23
2023-04-18T08:39:45.733Z,80.86
2023-04-18T08:40:45.798Z,80.69
2023-04-18T08:41:45.760Z,80.66
2023-04-18T08:42:45.687Z,80.50
2023-04-18T08:43:45.701Z,80.59
2023-04-18T08:44:45.720Z,80.36
2023-04-18T08:45:45.705Z,80.31
2023-04-18T08:46:45.728Z,80.32
2023-04-18T08:47:45.756Z,80.15
2023-04-18T08:48:45.713Z,79.83
2023-04-18T08:49:45.617Z,80.02
2023-04-18T08:50:45.673Z,80.15
2023-04-18T08:51:45.718Z,80.05
2023-04-18T08:52:45.608Z,80.09
2023-04-18T08:53:45.671Z,80.41
2023-04-18T08:54:45.718Z,80.31
2023-04-18T08:55:45.579Z,80.16
2023-04-18T08:56:45.601Z,80.19
2023-04-18T08:57:45.524Z,80.25
2023-04-18T08:58:45.610Z,79.69
2023-04-18T08:59:47.090Z,79.40
2023-04-18T09:00:45.709Z,78.86
2023-04-18T09:01:45.547Z,78.57
2023-04-18T09:02:45.578Z,78.52
2023-04-18T09:03:45.558Z,78.52
2023-04-18T09:04:45.494Z,78.73
2023-04-18T09:05:45.589Z,78.64
2023-04-18T09:06:45.531Z,78.74
2023-04-18T09:07:45.476Z,78.38
2023-04-18T09:08:45.444Z,78.12
2023-04-18T09:09:45.403Z,78.16
2023-04-18T09:10:46.840Z,77.45
2023-04-18T09:11:45.522Z,77.06
2023-04-18T09:12:45.383Z,76.52
2023-04-18T09:13:45.539Z,76.39
2023-04-18T09:14:45.343Z,77.45
2023-04-18T09:15:45.389Z,77.13
2023-04-18T09:16:45.414Z,77.39
2023-04-18T09:17:45.357Z,77.29
2023-04-18T09:18:45.366Z,77.09
2023-04-18T09:19:45.491Z,77.40
2023-04-18T09:20:45.305Z,77.45
2023-04-18T09:21:45.417Z,77.22
2023-04-18T09:22:45.364Z,77.87
2023-04-18T09:23:45.288Z,77.51
2023-04-18T09:24:45.319Z,77.91
2023-04-18T09:25:45.684Z,77.52
2023-04-18T09:26:45.228Z,77.17
2023-04-18T09:27:45.250Z,77.25
2023-04-18T09:28:45.316Z,77.17
2023-04-18T09:29:45.213Z,77.46
2023-04-18T09:30:45.284Z,76.87
2023-04-18T09:31:45.339Z,76.69
2023-04-18T09:32:45.523Z,76.69
2023-04-18T09:33:45.204Z,76.46
2023-04-18T09:34:45.219Z,76.28
2023-04-18T09:35:45.169Z,75.81
2023-04-18T09:36:45.210Z,75.54
2023-04-18T09:37:45.130Z,75.70
2023-04-18T09:38:45.139Z,75.22
2023-04-18T09:39:45.310Z,74.50
2023-04-18T09:40:45.151Z,74.47
2023-04-18T09:41:45.145Z,74.21
2023-04-18T09:42:45.115Z,74.06
2023-04-18T09:43:45.101Z,73.56
2023-04-18T09:44:45.953Z,73.90
2023-04-18T09:45:45.378Z,74.00
2023-04-18T09:46:47.194Z,73.48
2023-04-18T09:47:45.071Z,73.38
2023-04-18T09:48:45.062Z,72.89
2023-04-18T09:49:45.058Z,72.91
2023-04-18T09:50:45.072Z,72.64
2023-04-18T09:51:45.056Z,72.89
2023-04-18T09:52:44.967Z,72.94
2023-04-18T09:53:45.125Z,73.00
2023-04-18T09:54:47.704Z,72.69
2023-04-18T09:55:44.975Z,72.94
2023-04-18T09:56:45.042Z,72.95
2023-04-18T09:57:45.067Z,73.18
2023-04-18T09:58:44.940Z,73.26
2023-04-18T09:59:44.936Z,73.48
2023-04-18T10:00:46.811Z,73.65
2023-04-18T10:01:44.924Z,73.65
2023-04-18T10:02:45.012Z,73.94
2023-04-18T10:03:45.000Z,73.43
2023-04-18T10:04:44.918Z,73.82
2023-04-18T10:05:44.973Z,73.65
2023-04-18T10:06:44.998Z,74.14
2023-04-18T10:07:44.810Z,74.11
2023-04-18T10:08:44.918Z,73.81
2023-04-18T10:09:44.884Z,74.22
2023-04-18T10:10:44.843Z,74.28
2023-04-18T10:11:44.846Z,74.18
2023-04-18T10:12:44.763Z,74.45
2023-04-18T10:13:44.835Z,74.12
2023-04-18T10:14:44.729Z,74.19
2023-04-18T10:15:45.379Z,74.39
2023-04-18T10:16:44.789Z,74.31
2023-04-18T10:17:56.034Z,74.07
2023-04-18T10:18:44.733Z,73.87
2023-04-18T10:19:44.718Z,73.99
2023-04-18T10:20:44.684Z,73.89
2023-04-18T10:21:44.700Z,73.74
2023-04-18T10:22:44.803Z,73.76
2023-04-18T10:23:44.663Z,74.21
2023-04-18T10:24:44.704Z,74.17
2023-04-18T10:25:44.659Z,74.41
2023-04-18T10:26:44.640Z,74.79
2023-04-18T10:27:44.622Z,74.61
2023-04-18T10:28:45.940Z,74.73
2023-04-18T10:29:44.693Z,74.90
2023-04-18T10:30:44.707Z,75.00
2023-04-18T10:31:44.650Z,75.25
2023-04-18T10:32:44.645Z,75.10
2023-04-18T10:33:49.619Z,74.75
2023-04-18T10:34:44.677Z,74.90
2023-04-18T10:35:44.558Z,74.67
2023-04-18T10:36:44.544Z,75.06
2023-04-18T10:37:44.504Z,75.00
2023-04-18T10:38:44.585Z,74.33
2023-04-18T10:39:44.480Z,73.74
2023-04-18T10:40:44.540Z,73.58
2023-04-18T10:41:44.492Z,73.43
2023-04-18T10:42:44.447Z,72.80
2023-04-18T10:43:44.486Z,72.13
2023-04-18T10:44:44.554Z,71.54
2023-04-18T10:45:44.425Z,70.66
2023-04-18T10:46:44.466Z,70.08
2023-04-18T10:47:44.577Z,70.78
2023-04-18T10:48:44.384Z,69.18
2023-04-18T10:49:44.389Z,68.50
2023-04-18T10:50:44.399Z,67.84
2023-04-18T10:51:44.403Z,67.53
2023-04-18T10:52:44.395Z,67.81
2023-04-18T10:53:44.347Z,68.38
2023-04-18T10:54:44.396Z,68.71
2023-04-18T10:55:44.344Z,68.86
2023-04-18T10:56:44.341Z,69.25
2023-04-18T10:57:44.338Z,68.89
2023-04-18T10:58:44.354Z,68.58
2023-04-18T10:59:44.287Z,68.50
2023-04-18T11:00:44.379Z,69.45
2023-04-18T11:01:44.304Z,70.28
2023-04-18T11:02:44.330Z,70.39
2023-04-18T11:03:44.343Z,70.23
2023-04-18T11:04:44.218Z,70.24
2023-04-18T11:05:44.273Z,70.19
2023-04-18T11:06:44.310Z,70.44
2023-04-18T11:07:44.206Z,70.45
2023-04-18T11:08:44.279Z,69.98
2023-04-18T11:09:45.483Z,69.72
2023-04-18T11:10:44.191Z,69.45
2023-04-18T11:11:44.184Z,69.91
2023-04-18T11:12:44.206Z,69.72
2023-04-18T11:13:44.187Z,69.94
2023-04-18T11:14:44.165Z,70.22
2023-04-18T11:15:44.148Z,70.39
2023-04-18T11:16:44.193Z,70.14
2023-04-18T11:17:44.211Z,69.77
2023-04-18T11:18:44.094Z,69.81
2023-04-18T11:19:44.344Z,69.97
2023-04-18T11:20:44.177Z,70.46
2023-04-18T11:21:44.076Z,70.69
2023-04-18T11:22:44.055Z,69.86
2023-04-18T11:23:44.056Z,69.72
2023-04-18T11:24:44.078Z,70.38
2023-04-18T11:25:44.130Z,70.11
2023-04-18T11:26:44.024Z,70.02
2023-04-18T11:27:44.068Z,70.03
2023-04-18T11:28:43.999Z,69.63
2023-04-18T11:29:43.972Z,69.24
2023-04-18T11:30:43.976Z,69.26
2023-04-18T11:31:44.101Z,68.92
2023-04-18T11:32:43.967Z,69.58
2023-04-18T11:33:43.962Z,69.28
2023-04-18T11:34:43.930Z,69.43
2023-04-18T11:35:43.923Z,69.82
2023-04-18T11:36:43.928Z,69.38
2023-04-18T11:37:43.938Z,69.52
2023-04-18T11:38:43.906Z,69.17
2023-04-18T11:39:43.906Z,69.47
2023-04-18T11:40:43.894Z,69.17
2023-04-18T11:41:43.865Z,70.43
2023-04-18T11:42:43.873Z,70.34
2023-04-18T11:43:43.940Z,70.73
2023-04-18T11:44:43.882Z,71.12
2023-04-18T11:45:43.844Z,71.52
2023-04-18T11:46:43.860Z,72.08
2023-04-18T11:47:43.945Z,72.13
2023-04-18T11:48:43.862Z,71.27
2023-04-18T11:49:43.779Z,71.34
2023-04-18T11:50:43.820Z,71.61
2023-04-18T11:51:43.762Z,71.38
2023-04-18T11:52:43.808Z,71.56
2023-04-18T11:53:43.776Z,72.08
2023-04-18T11:54:43.746Z,72.53
2023-04-18T11:55:43.761Z,72.41
2023-04-18T11:56:43.703Z,72.76
2023-04-18T11:57:43.738Z,72.44
2023-04-18T11:58:43.674Z,72.07
2023-04-18T11:59:43.707Z,71.81
2023-04-18T12:00:43.692Z,72.12
2023-04-18T12:01:43.672Z,71.90
2023-04-18T12:02:43.845Z,71.82
2023-04-18T12:03:43.801Z,71.34
2023-04-18T12:04:43.789Z,71.88
2023-04-18T12:05:43.827Z,72.08
2023-04-18T12:06:43.654Z,71.68
2023-04-18T12:07:43.590Z,71.26
2023-04-18T12:08:43.684Z,71.15
2023-04-18T12:09:43.575Z,71.15
2023-04-18T12:10:43.570Z,70.70
2023-04-18T12:11:43.568Z,70.47
2023-04-18T12:12:43.533Z,70.31
2023-04-18T12:13:43.604Z,70.07
2023-04-18T12:14:43.548Z,70.70
2023-04-18T12:15:43.559Z,71.00
2023-04-18T12:16:43.528Z,71.18
2023-04-18T12:17:43.556Z,71.25
2023-04-18T12:18:43.470Z,70.39
2023-04-18T12:19:43.461Z,70.02
2023-04-18T12:20:43.458Z,69.90
2023-04-18T12:21:43.516Z,69.56
2023-04-18T12:22:43.444Z,69.22
2023-04-18T12:23:43.416Z,68.75
2023-04-18T12:24:43.430Z,69.05
2023-04-18T12:25:43.389Z,68.62
2023-04-18T12:26:43.407Z,68.20
2023-04-18T12:27:43.397Z,68.64
2023-04-18T12:28:43.377Z,67.81
2023-04-18T12:29:43.386Z,67.63
2023-04-18T12:30:43.444Z,66.87
2023-04-18T12:31:43.418Z,66.17
2023-04-18T12:32:43.352Z,67.05
2023-04-18T12:33:43.328Z,67.36
2023-04-18T12:34:43.387Z,65.93
2023-04-18T12:35:43.299Z,66.30
2023-04-18T12:36:43.317Z,66.37
2023-04-18T12:37:43.302Z,65.62
2023-04-18T12:38:43.277Z,65.85
2023-04-18T12:39:43.294Z,66.36
2023-04-18T12:40:43.269Z,66.56
2023-04-18T12:41:43.310Z,66.48
2023-04-18T12:42:43.233Z,67.13
2023-04-18T12:43:43.262Z,67.28
2023-04-18T12:44:43.187Z,67.18
2023-04-18T12:45:43.195Z,67.09
2023-04-18T12:46:43.205Z,66.58
2023-04-18T12:47:43.220Z,67.00
2023-04-18T12:48:43.155Z,67.03
2023-04-18T12:49:43.472Z,67.74
2023-04-18T12:50:43.141Z,67.57
2023-04-18T12:51:43.127Z,67.49
2023-04-18T12:52:43.173Z,67.81